createdAt,value
2023-01-23T00:00:31.278Z,10.50
2023-01-23T00:02:57.051Z,10.68
2023-01-23T00:05:22.824Z,12.40
2023-01-23T00:07:48.619Z,10.75
2023-01-23T00:10:14.385Z,11.38
2023-01-23T00:12:40.913Z,11.77
2023-01-23T00:15:07.003Z,11.30
2023-01-23T00:17:32.723Z,11.63
2023-01-23T00:19:58.960Z,10.80
2023-01-23T00:22:24.752Z,12.80
2023-01-23T00:24:50.460Z,10.73
2023-01-23T00:27:16.193Z,11.20
2023-01-23T00:29:41.968Z,9.48
2023-01-23T00:32:07.810Z,10.40
2023-01-23T00:34:33.562Z,10.52
2023-01-23T00:36:59.301Z,10.32
2023-01-23T00:39:25.050Z,10.00
2023-01-23T00:41:50.808Z,11.35
2023-01-23T00:44:16.893Z,12.13
2023-01-23T00:46:42.673Z,10.45
2023-01-23T00:49:08.728Z,11.32
2023-01-23T00:51:34.441Z,10.70
2023-01-23T00:54:00.403Z,13.15
2023-01-23T00:56:26.130Z,11.10
2023-01-23T00:58:51.900Z,10.43
2023-01-23T01:01:18.067Z,11.68
2023-01-23T01:03:44.031Z,10.77
2023-01-23T01:06:09.960Z,11.23
2023-01-23T01:08:36.119Z,12.15
2023-01-23T01:11:01.962Z,9.27
2023-01-23T01:13:27.951Z,10.25
2023-01-23T01:15:53.887Z,11.55
2023-01-23T01:18:20.356Z,10.77
2023-01-23T01:20:46.415Z,12.25
2023-01-23T01:23:12.282Z,12.00
2023-01-23T01:25:38.273Z,11.93
2023-01-23T01:28:04.488Z,11.68
2023-01-23T01:30:30.346Z,13.40
2023-01-23T01:32:56.374Z,12.70
2023-01-23T01:35:22.690Z,10.93
2023-01-23T01:37:48.878Z,10.18
2023-01-23T01:40:16.227Z,12.02
2023-01-23T01:42:43.111Z,10.27
2023-01-23T01:45:27.603Z,11.32
2023-01-23T01:47:53.347Z,11.02
2023-01-23T01:50:19.371Z,11.25
2023-01-23T01:52:45.260Z,10.70
2023-01-23T01:55:11.104Z,11.90
2023-01-23T01:57:39.213Z,12.45
2023-01-23T02:00:09.748Z,11.57
2023-01-23T02:02:37.990Z,12.68
2023-01-23T02:05:06.080Z,10.52
2023-01-23T02:07:33.663Z,11.55
2023-01-23T02:10:01.220Z,12.25
2023-01-23T02:12:27.520Z,12.27
2023-01-23T02:14:53.414Z,12.52
2023-01-23T02:17:19.182Z,12.05
2023-01-23T02:19:54.052Z,13.60
2023-01-23T02:22:38.500Z,12.90
2023-01-23T02:25:12.788Z,13.15
2023-01-23T02:27:38.547Z,11.23
2023-01-23T02:30:07.179Z,13.45
2023-01-23T02:32:33.122Z,11.93
2023-01-23T02:35:00.180Z,12.73
2023-01-23T02:37:29.194Z,11.85
2023-01-23T02:39:55.772Z,11.68
2023-01-23T02:42:22.041Z,12.35
2023-01-23T02:44:47.834Z,13.38
2023-01-23T02:47:13.875Z,12.98
2023-01-23T02:49:39.721Z,12.98
2023-01-23T02:52:05.956Z,11.80
2023-01-23T02:54:32.145Z,12.68
2023-01-23T02:56:57.921Z,11.93
2023-01-23T02:59:42.106Z,13.02
2023-01-23T03:02:07.999Z,12.63
2023-01-23T03:04:33.831Z,13.55
2023-01-23T03:06:59.769Z,11.88
2023-01-23T03:09:25.863Z,12.48
2023-01-23T03:11:51.626Z,13.00
2023-01-23T03:14:18.551Z,12.50
2023-01-23T03:16:49.575Z,13.15
2023-01-23T03:19:15.590Z,10.95
2023-01-23T03:21:41.392Z,11.75
2023-01-23T03:24:11.207Z,13.30
2023-01-23T03:26:38.187Z,14.02
2023-01-23T03:29:22.387Z,13.90
2023-01-23T03:31:48.193Z,11.50
2023-01-23T03:34:14.079Z,11.40
2023-01-23T03:36:40.609Z,11.00
2023-01-23T03:39:25.874Z,12.70
2023-01-23T03:41:52.474Z,13.15
2023-01-23T03:44:18.685Z,13.13
2023-01-23T03:46:45.201Z,13.48
2023-01-23T03:49:10.980Z,14.05
2023-01-23T03:51:36.708Z,12.75
2023-01-23T03:54:02.465Z,13.68
2023-01-23T03:56:28.263Z,13.60
2023-01-23T03:58:54.070Z,13.57
2023-01-23T04:01:20.028Z,13.25
2023-01-23T04:03:45.767Z,13.57
2023-01-23T04:06:11.624Z,13.52
2023-01-23T04:08:37.361Z,12.82
2023-01-23T04:11:04.572Z,13.63
2023-01-23T04:13:30.420Z,12.68
2023-01-23T04:15:56.087Z,14.98
2023-01-23T04:18:21.953Z,14.15
2023-01-23T04:20:47.708Z,14.07
2023-01-23T04:23:13.464Z,14.73
2023-01-23T04:25:39.209Z,14.32
2023-01-23T04:28:04.954Z,14.55
2023-01-23T04:30:30.807Z,15.65
2023-01-23T04:32:56.626Z,14.82
2023-01-23T04:35:22.335Z,15.45
2023-01-23T04:37:48.077Z,15.20
2023-01-23T04:40:13.955Z,17.45
2023-01-23T04:42:41.166Z,15.82
2023-01-23T04:45:07.794Z,16.38
2023-01-23T04:47:33.509Z,16.67
2023-01-23T04:49:59.250Z,16.00
2023-01-23T04:52:25.039Z,17.08
2023-01-23T04:54:50.766Z,15.27
2023-01-23T04:57:16.511Z,16.88
2023-01-23T04:59:42.260Z,16.67
2023-01-23T05:02:09.157Z,16.58
2023-01-23T05:04:35.524Z,15.52
2023-01-23T05:07:01.599Z,16.15
2023-01-23T05:09:27.644Z,18.25
2023-01-23T05:11:53.955Z,17.23
2023-01-23T05:14:21.573Z,15.95
2023-01-23T05:16:47.463Z,17.08
2023-01-23T05:19:13.368Z,16.60
2023-01-23T05:21:54.630Z,17.67
2023-01-23T05:24:20.643Z,17.92
2023-01-23T05:26:46.589Z,18.70
2023-01-23T05:29:13.576Z,17.33
2023-01-23T05:31:42.077Z,19.02
2023-01-23T05:34:07.963Z,16.75
2023-01-23T05:36:33.972Z,17.35
2023-01-23T05:39:00.165Z,16.92
2023-01-23T05:41:33.624Z,16.15
2023-01-23T05:43:59.765Z,15.52
2023-01-23T05:46:25.800Z,17.15
2023-01-23T05:48:54.779Z,16.60
2023-01-23T05:51:31.036Z,15.55
2023-01-23T05:53:58.769Z,16.08
2023-01-23T05:56:24.919Z,16.35
2023-01-23T06:01:33.196Z,16.55
2023-01-23T06:03:59.503Z,17.50
2023-01-23T06:06:25.603Z,17.20
2023-01-23T06:08:53.214Z,16.70
2023-01-23T06:11:19.232Z,15.07
2023-01-23T06:13:45.278Z,16.75
2023-01-23T06:16:12.959Z,17.25
2023-01-23T06:18:40.078Z,15.98
2023-01-23T06:24:28.853Z,17.38
2023-01-23T06:26:55.694Z,16.50
2023-01-23T06:29:21.802Z,16.33
2023-01-23T06:31:48.500Z,16.85
2023-01-23T06:34:18.829Z,16.25
2023-01-23T06:36:46.018Z,16.58
2023-01-23T06:41:56.455Z,18.13
2023-01-23T06:44:23.440Z,16.30
2023-01-23T06:46:49.480Z,17.92
2023-01-23T06:49:16.399Z,15.95
2023-01-23T06:51:43.706Z,17.50
2023-01-23T06:54:10.897Z,16.67
2023-01-23T06:56:37.292Z,18.58
2023-01-23T06:59:03.189Z,15.63
2023-01-23T07:01:29.318Z,17.98
2023-01-23T07:03:55.422Z,15.80
2023-01-23T07:06:22.138Z,15.77
2023-01-23T07:08:49.621Z,16.35
2023-01-23T07:11:15.574Z,15.38
2023-01-23T07:13:43.207Z,15.48
2023-01-23T07:16:09.301Z,17.30
2023-01-23T07:21:17.809Z,16.08
2023-01-23T07:23:43.781Z,16.75
2023-01-23T07:26:21.220Z,17.85
2023-01-23T07:28:47.423Z,16.95
2023-01-23T07:31:13.433Z,18.63
2023-01-23T07:33:39.448Z,17.15
2023-01-23T07:36:08.449Z,17.25
2023-01-23T07:38:37.512Z,18.58
2023-01-23T07:41:03.463Z,17.35
2023-01-23T07:43:33.281Z,17.95
2023-01-23T07:45:59.566Z,15.93
2023-01-23T07:48:25.481Z,14.88
2023-01-23T07:50:51.480Z,16.48
2023-01-23T07:53:17.953Z,14.98
2023-01-23T07:55:44.848Z,16.92
2023-01-23T07:58:10.819Z,15.77
2023-01-23T08:00:36.934Z,14.80
2023-01-23T08:03:08.028Z,15.90
2023-01-23T08:05:35.974Z,15.52
2023-01-23T08:19:24.862Z,16.27
2023-01-23T08:21:51.245Z,17.58
2023-01-23T08:24:17.035Z,18.48
2023-01-23T08:26:43.905Z,15.65
2023-01-23T08:29:12.592Z,17.95
2023-01-23T08:31:39.678Z,16.77
2023-01-23T08:34:06.000Z,15.40
2023-01-23T08:36:32.064Z,17.15
2023-01-23T08:38:58.581Z,14.82
2023-01-23T08:41:25.615Z,15.52
2023-01-23T08:43:51.526Z,16.17
2023-01-23T08:46:17.573Z,13.65
2023-01-23T08:48:43.347Z,14.10
2023-01-23T08:51:31.279Z,15.50
2023-01-23T08:53:57.195Z,14.88
2023-01-23T08:56:23.255Z,16.13
2023-01-23T08:58:49.697Z,14.88
2023-01-23T09:01:17.733Z,15.60
2023-01-23T09:03:44.107Z,15.30
2023-01-23T09:06:11.107Z,16.15
2023-01-23T09:08:37.484Z,14.32
2023-01-23T09:11:07.248Z,16.02
2023-01-23T09:13:33.065Z,15.90
2023-01-23T09:15:58.910Z,16.58
2023-01-23T09:18:24.977Z,17.92
2023-01-23T09:20:59.932Z,17.08
2023-01-23T09:23:26.496Z,14.40
2023-01-23T09:25:52.297Z,16.30
2023-01-23T09:28:18.065Z,16.13
2023-01-23T09:30:44.307Z,17.73
2023-01-23T09:33:10.283Z,14.55
2023-01-23T09:35:36.263Z,16.52
2023-01-23T09:38:06.206Z,17.08
2023-01-23T09:40:35.051Z,15.93
2023-01-23T09:43:16.045Z,16.50
2023-01-23T09:45:46.447Z,14.50
2023-01-23T09:48:20.077Z,17.75
2023-01-23T09:51:03.710Z,15.88
2023-01-23T09:53:34.842Z,16.20
2023-01-23T09:56:13.959Z,16.95
2023-01-23T09:58:58.020Z,14.32
2023-01-23T10:01:25.709Z,15.77
2023-01-23T10:03:51.831Z,16.40
2023-01-23T10:06:23.450Z,16.02
2023-01-23T10:09:08.557Z,17.13
2023-01-23T10:11:42.143Z,16.35
2023-01-23T10:14:20.305Z,17.83
2023-01-23T10:16:52.380Z,16.73
2023-01-23T10:19:35.558Z,15.40
2023-01-23T10:22:22.786Z,16.50
2023-01-23T10:24:50.556Z,16.48
2023-01-23T10:27:18.107Z,15.85
2023-01-23T10:29:48.960Z,16.77
2023-01-23T10:34:46.935Z,16.52
2023-01-23T10:37:12.938Z,18.17
2023-01-23T10:39:56.980Z,20.33
2023-01-23T10:42:25.048Z,18.05
2023-01-23T10:44:50.980Z,17.95
2023-01-23T10:47:34.339Z,17.42
2023-01-23T10:50:00.836Z,18.02
2023-01-23T10:52:52.109Z,18.23
2023-01-23T10:55:18.465Z,16.83
2023-01-23T10:57:49.508Z,17.63
2023-01-23T11:00:35.796Z,17.30
2023-01-23T11:03:21.999Z,18.52
2023-01-23T11:06:00.335Z,17.00
2023-01-23T11:08:35.659Z,19.05
2023-01-23T11:11:13.996Z,17.25
2023-01-23T11:13:40.208Z,17.02
2023-01-23T11:16:26.605Z,16.77
2023-01-23T11:18:54.048Z,17.65
2023-01-23T11:21:36.630Z,19.08
2023-01-23T11:24:27.706Z,15.10
2023-01-23T11:27:00.920Z,15.05
2023-01-23T11:29:27.937Z,15.93
2023-01-23T11:32:07.301Z,16.45
2023-01-23T11:34:36.510Z,15.32
2023-01-23T11:37:08.813Z,15.40
2023-01-23T11:39:53.760Z,17.38
2023-01-23T11:42:22.482Z,16.02
2023-01-23T11:44:50.914Z,15.48
2023-01-23T11:47:31.724Z,14.23
2023-01-23T11:52:42.418Z,13.57
2023-01-23T11:55:25.807Z,14.75
2023-01-23T11:58:03.508Z,13.73
2023-01-23T12:00:42.094Z,13.45
2023-01-23T12:03:26.613Z,14.30
2023-01-23T12:06:19.556Z,14.82
2023-01-23T12:08:55.393Z,13.77
2023-01-23T12:11:24.252Z,14.85
2023-01-23T12:13:59.964Z,14.50
2023-01-23T12:16:55.585Z,14.50
2023-01-23T12:19:21.902Z,14.95
2023-01-23T12:22:37.736Z,14.40
2023-01-23T12:25:04.386Z,15.13
2023-01-23T12:27:30.462Z,14.77
2023-01-23T12:30:16.732Z,14.88
2023-01-23T12:32:42.804Z,17.58
2023-01-23T12:35:28.581Z,16.00
2023-01-23T12:37:54.363Z,16.88
2023-01-23T12:40:30.646Z,15.30
2023-01-23T12:43:01.521Z,15.80
2023-01-23T12:45:30.310Z,16.52
2023-01-23T12:48:01.641Z,15.88
2023-01-23T12:50:42.787Z,15.38
2023-01-23T12:53:21.851Z,15.75
2023-01-23T12:55:48.011Z,14.40
2023-01-23T12:58:16.426Z,15.75
2023-01-23T13:00:42.575Z,16.27
2023-01-23T13:03:09.989Z,16.67
2023-01-23T13:05:42.229Z,15.75
2023-01-23T13:08:08.143Z,15.65
2023-01-23T13:11:05.739Z,17.30
2023-01-23T13:13:32.261Z,15.68
2023-01-23T13:16:03.317Z,16.95
2023-01-23T13:18:30.397Z,16.38
2023-01-23T13:21:16.675Z,15.90
2023-01-23T13:23:43.877Z,15.15
2023-01-23T13:26:15.995Z,14.15
2023-01-23T13:28:55.119Z,15.05
2023-01-23T13:31:39.951Z,16.13
2023-01-23T13:34:28.631Z,14.50
2023-01-23T13:36:54.537Z,16.55
2023-01-23T13:39:41.793Z,15.48
2023-01-23T13:42:13.638Z,16.10
2023-01-23T13:44:58.363Z,15.30
2023-01-23T14:22:44.470Z,12.90
2023-01-23T14:25:18.417Z,13.32
2023-01-23T14:27:53.317Z,12.90
2023-01-23T14:30:27.505Z,13.98
2023-01-23T14:32:53.856Z,11.88
2023-01-23T14:35:25.818Z,10.93
2023-01-23T14:37:53.972Z,11.70
2023-01-23T14:40:27.616Z,12.18
2023-01-23T14:43:05.058Z,10.50
2023-01-23T14:45:33.196Z,12.32
2023-01-23T14:48:06.439Z,11.25
2023-01-23T14:50:38.499Z,11.68
2023-01-23T14:55:58.064Z,10.70
2023-01-23T14:58:34.058Z,10.40
2023-01-23T15:01:01.101Z,11.88
2023-01-23T15:06:18.880Z,10.15
2023-01-23T15:08:45.713Z,10.18
2023-01-23T15:11:12.805Z,10.73
2023-01-23T15:13:56.989Z,10.63
2023-01-23T15:16:24.313Z,10.20
2023-01-23T15:19:05.306Z,9.55
2023-01-23T15:21:39.063Z,12.40
2023-01-23T15:32:48.498Z,10.43
2023-01-23T16:09:30.237Z,11.07
2023-01-23T16:11:57.419Z,11.43
2023-01-23T16:14:24.807Z,10.65
2023-01-23T16:16:51.074Z,10.80
2023-01-23T16:19:18.096Z,10.15
2023-01-23T16:21:55.818Z,9.82
2023-01-23T16:24:26.436Z,9.73
2023-01-23T16:26:56.156Z,10.48
2023-01-23T16:32:14.228Z,8.93
2023-01-23T16:34:40.808Z,9.82
2023-01-23T16:37:47.599Z,9.68
2023-01-23T16:40:17.021Z,8.57
2023-01-23T16:42:44.151Z,9.48
2023-01-23T16:45:18.279Z,10.10
2023-01-23T16:47:52.571Z,8.85
2023-01-23T16:50:20.234Z,9.68
2023-01-23T16:52:52.865Z,11.10
2023-01-23T16:55:26.005Z,10.48
2023-01-23T16:57:54.836Z,9.20
2023-01-23T17:00:33.584Z,8.50
2023-01-23T17:03:05.143Z,10.52
2023-01-23T17:05:43.294Z,9.10
2023-01-23T17:08:22.916Z,9.20
2023-01-23T17:11:01.070Z,9.95
2023-01-23T17:13:30.482Z,9.80
2023-01-23T17:15:58.987Z,9.68
2023-01-23T17:18:27.550Z,9.13
2023-01-23T17:20:57.910Z,9.93
2023-01-23T17:23:24.950Z,9.77
2023-01-23T17:26:00.257Z,8.60
2023-01-23T17:28:26.596Z,9.32
2023-01-23T17:30:53.272Z,10.20
2023-01-23T17:33:21.456Z,11.20
2023-01-23T17:36:00.302Z,9.80
2023-01-23T17:38:31.148Z,10.02
2023-01-23T17:40:58.380Z,10.68
2023-01-23T17:43:25.405Z,9.88
2023-01-23T17:51:15.302Z,9.15
2023-01-23T17:53:42.288Z,9.48
2023-01-23T17:56:08.602Z,9.55
2023-01-23T17:58:34.822Z,10.23
2023-01-23T18:01:00.989Z,10.02
2023-01-23T18:03:32.381Z,10.38
2023-01-23T18:06:01.325Z,10.57
2023-01-23T18:08:27.616Z,10.13
2023-01-23T18:13:44.071Z,10.25
2023-01-23T18:16:23.673Z,10.38
2023-01-23T18:19:00.701Z,10.75
2023-01-23T18:21:28.218Z,10.23
2023-01-23T18:23:54.928Z,10.45
2023-01-23T18:26:23.943Z,11.27
2023-01-23T18:28:50.181Z,9.23
2023-01-23T18:31:22.215Z,10.73
2023-01-23T18:33:48.657Z,9.50
2023-01-23T18:36:43.245Z,12.00
2023-01-23T18:39:29.009Z,10.10
2023-01-23T18:42:18.450Z,8.77
2023-01-23T18:44:52.142Z,8.65
2023-01-23T18:47:18.707Z,8.65
2023-01-23T18:49:46.043Z,8.88
2023-01-23T18:52:16.663Z,8.55
2023-01-23T18:55:06.225Z,10.15
2023-01-23T18:57:48.056Z,9.75
2023-01-23T19:00:28.415Z,9.90
2023-01-23T19:03:01.188Z,10.68
2023-01-23T19:05:46.115Z,10.30
2023-01-23T19:08:42.502Z,9.52
2023-01-23T19:11:18.752Z,8.40
2023-01-23T19:13:50.219Z,8.90
2023-01-23T19:16:22.436Z,8.32
2023-01-23T19:19:15.832Z,9.60
2023-01-23T19:21:43.015Z,11.40
2023-01-23T19:24:11.640Z,9.32
2023-01-23T19:26:44.077Z,9.90
2023-01-23T19:29:22.765Z,10.70
2023-01-23T19:34:45.033Z,10.25
2023-01-23T19:37:14.900Z,8.63
2023-01-23T19:39:41.636Z,11.25
2023-01-23T19:42:12.789Z,8.18
2023-01-23T19:44:39.286Z,9.15
2023-01-23T19:47:06.464Z,8.80
2023-01-23T19:49:32.571Z,9.82
2023-01-23T19:51:58.513Z,9.70
2023-01-23T19:54:24.650Z,8.77
2023-01-23T19:56:54.873Z,9.85
2023-01-23T19:59:21.048Z,8.95
2023-01-23T20:01:52.621Z,9.25
2023-01-23T20:04:20.655Z,8.95
2023-01-23T20:06:48.557Z,9.93
2023-01-23T20:09:14.776Z,8.65
2023-01-23T20:11:45.738Z,10.27
2023-01-23T20:14:12.976Z,8.68
2023-01-23T20:16:40.510Z,7.95
2023-01-23T20:19:06.929Z,8.73
2023-01-23T20:21:32.830Z,9.13
2023-01-23T20:23:58.921Z,8.90
2023-01-23T20:26:25.118Z,8.57
2023-01-23T20:28:52.959Z,7.55
2023-01-23T20:31:21.111Z,8.73
2023-01-23T20:36:55.788Z,7.20
2023-01-23T20:39:22.432Z,8.20
2023-01-23T20:41:48.482Z,8.50
2023-01-23T20:44:14.334Z,7.78
2023-01-23T20:46:42.078Z,9.10
2023-01-23T20:49:14.340Z,8.07
2023-01-23T20:51:43.229Z,7.65
2023-01-23T20:54:09.101Z,7.90
2023-01-23T20:56:39.906Z,8.02
2023-01-23T20:59:19.965Z,9.77
2023-01-23T21:02:04.671Z,8.07
2023-01-23T21:04:32.938Z,9.15
2023-01-23T21:07:17.444Z,8.10
2023-01-23T21:09:44.990Z,7.40
2023-01-23T21:12:12.419Z,7.70
2023-01-23T21:14:40.316Z,7.18
2023-01-23T21:17:11.946Z,8.50
2023-01-23T21:19:38.488Z,8.68
2023-01-23T21:22:05.552Z,7.20
2023-01-23T21:24:36.062Z,7.43
2023-01-23T21:27:02.476Z,8.93
2023-01-23T21:29:28.750Z,7.88
2023-01-23T21:31:55.657Z,9.75
2023-01-23T21:34:21.682Z,9.35
2023-01-23T21:37:14.658Z,10.60
2023-01-23T21:39:40.720Z,8.43
2023-01-23T21:42:07.008Z,11.13
2023-01-23T21:44:35.489Z,9.23
2023-01-23T21:47:04.916Z,9.00
2023-01-23T21:49:30.777Z,9.23
2023-01-23T21:51:56.738Z,9.63
2023-01-23T21:54:22.793Z,10.45
2023-01-23T21:56:48.823Z,10.82
2023-01-23T21:59:14.635Z,9.07
2023-01-23T22:01:44.654Z,9.25
2023-01-23T22:04:12.181Z,9.70
2023-01-23T22:06:38.905Z,10.75
2023-01-23T22:09:05.636Z,9.38
2023-01-23T22:11:35.691Z,9.02
2023-01-23T22:14:02.252Z,8.75
2023-01-23T22:16:46.980Z,8.98
2023-01-23T22:19:14.356Z,10.80
2023-01-23T22:21:40.389Z,9.57
2023-01-23T22:24:06.349Z,8.85
2023-01-23T22:26:32.109Z,10.13
2023-01-23T22:28:57.843Z,9.85
2023-01-23T22:31:23.627Z,6.80
2023-01-23T22:33:49.487Z,8.95
2023-01-23T22:36:16.426Z,9.60
2023-01-23T22:38:42.334Z,9.00
2023-01-23T22:41:11.309Z,10.02
2023-01-23T22:43:37.030Z,10.10
2023-01-23T22:46:07.169Z,12.05
2023-01-23T22:48:33.881Z,9.20
2023-01-23T22:51:00.617Z,10.73
2023-01-23T22:53:26.515Z,9.23
2023-01-23T22:55:52.243Z,9.35
2023-01-23T22:58:17.974Z,9.02
2023-01-23T23:00:43.769Z,9.10
2023-01-23T23:03:09.520Z,9.50
2023-01-23T23:05:35.250Z,9.10
2023-01-23T23:08:00.962Z,9.85
2023-01-23T23:10:26.870Z,10.40
2023-01-23T23:12:52.600Z,9.90
2023-01-23T23:15:18.763Z,9.65
2023-01-23T23:17:44.822Z,10.68
2023-01-23T23:20:10.937Z,10.77
2023-01-23T23:22:36.762Z,8.65
2023-01-23T23:25:02.508Z,11.20
2023-01-23T23:27:28.328Z,9.88
2023-01-23T23:29:54.057Z,9.90
2023-01-23T23:32:19.831Z,9.57
2023-01-23T23:34:45.562Z,9.27
2023-01-23T23:37:11.337Z,10.32
2023-01-23T23:39:37.049Z,11.35
2023-01-23T23:42:02.812Z,9.90
2023-01-23T23:44:28.561Z,9.90
2023-01-23T23:46:54.390Z,9.77
2023-01-23T23:49:20.154Z,9.98
2023-01-23T23:51:45.879Z,10.25
2023-01-23T23:54:11.601Z,8.80
2023-01-23T23:56:37.385Z,9.77
2023-01-23T23:59:03.233Z,10.27
